Hit Tracker is now ESPN Home Run Tracker! Hit Tracker founder Greg Rybarczyk is now collaborating with the ESPN Stats & Information Group to continue tracking all MLB home runs, and helping baseball fans know "How Far It Really Went!™" Please credit any information on this site to ESPN Stats & Information Group. For more information and analysis on home runs, please contact founder Greg Rybarczyk. E-Mail ESPN Home Run Tracker
Main Page | Ballparks | Park Overlays | Glossary | Highlight Homers | Feedback | Bio | 3 Types of HR's | AAA Home Run Derby Last Updated: July 7, 2015, 12:17 am PST
Welcome to the ESPN Home Run Tracker! Check out the ESPN MLB Scoreboard throughout the 2015 season! Contact us at grybar@hittrackeronline.com.
Season:
Ballpark detail for AT&T Park
Ballpark # of Home Runs HR per game Avg.
True
Distance
Avg.
Speed
Off
Bat
Avg.
Std.
Dist.
AT&T Park 51 1.21 399.4 103.1 395

Scatter Plot of Home Runs AT&T Park
 Overlay Ballpark:
Without range rings   With range rings

2015 Season Home Runs for AT&T Park
Click headers to sort
Date Video Path Hitter Hitter
Team
Pitcher Pitcher
Team
 ^
INN Ballpark Type/
Luck
True
Dist.
Speed
Off
Bat
Elev.
Angle
Horiz.
Angle
Apex Impact Due To: Std.
Dist.
#
Parks
Wind Temp. Alt.
04/16/15 Video View Crawford, Brandon SF Perez, Oliver ARI 7 AT&T Park JE/L 384 100.0 29.0 75.1 94 -5 -1 0 389 29
04/18/15 Video View Crawford, Brandon SF De La Rosa, Rubby ARI 4 AT&T Park JE 418 105.3 27.4 76.0 91 3 -3 0 417 30
05/28/15 Video View Belt, Brandon SF Miller, Shelby ATL 7 AT&T Park PL 390 98.8 31.2 103.9 102 7 -3 0 385 17
05/29/15 Video View Posey, Buster SF Foltynewicz, Mike ATL 1 AT&T Park JE 373 103.7 23.9 112.2 60 1 -1 0 373 16
05/31/15 Video View Crawford, Brandon SF Teheran, Julio ATL 2 AT&T Park PL 425 106.3 27.8 75.4 95 4 -2 0 422 30
05/31/15 Video View Belt, Brandon SF Teheran, Julio ATL 2 AT&T Park PL 390 101.9 34.3 74.2 127 4 -3 0 390 30
05/31/15 Video View Panik, Joe SF Veal, Donnie ATL 7 AT&T Park JE/L 387 100.5 28.6 71.0 84 4 -1 0 384 27
04/15/15 Video View Duffy, Matt SF Logan, Boone COL 8 AT&T Park PL 411 103.6 28.2 104.6 92 4 -2 0 408 30
06/26/15 Video View Susac, Andrew SF Bettis, Chad COL 5 AT&T Park PL 399 103.5 28.6 117.0 78 12 -1 0 388 30
06/27/15 Video View Duffy, Matt SF Rusin, Chris COL 5 AT&T Park PL 392 100.8 26.7 105.1 74 5 -1 0 388 19
06/28/15 Video View Duffy, Matt SF Kendrick, Kyle COL 6 AT&T Park PL 389 102.8 27.8 113.7 80 3 -1 0 386 30
06/28/15 Video View Crawford, Brandon SF Kendrick, Kyle COL 6 AT&T Park PL 401 101.9 29.5 69.4 86 11 -1 0 391 30
06/28/15 Video View Bumgarner, Madison SF Bergman, Christian COL 7 AT&T Park PL 372 100.6 32.6 124.4 94 3 -1 0 370 30
05/02/15 Video View Crawford, Brandon SF Santiago, Hector LAA 4 AT&T Park JE 420 105.1 24.2 84.5 79 0 -1 0 420 25
05/02/15 Video View Posey, Buster SF Pestano, Vinnie LAA 7 AT&T Park PL 385 105.2 24.1 112.1 62 2 -1 0 384 26
05/03/15 Video View Aoki, Norichika SF Weaver, Jered LAA 1 AT&T Park JE/L 335 91.7 40.3 58.5 110 25 -3 0 312 0
05/03/15 Video View Panik, Joe SF Weaver, Jered LAA 1 AT&T Park JE 390 101.3 28.7 71.3 87 2 -2 0 390 29
05/20/15 Video View Posey, Buster SF Garcia, Yimi LAD 7 AT&T Park PL 417 103.3 30.7 96.5 117 2 -3 0 418 29
05/21/15 Video View Bumgarner, Madison SF Kershaw, Clayton LAD 3 AT&T Park PL 391 101.1 35.9 120.0 112 24 -3 -3 369 30
04/21/15 Video View Maxwell, Justin SF Baez, Pedro LAD 8 AT&T Park ND 411 108.8 28.1 122.6 82 6 -3 0 407 30
05/08/15 Video View McGehee, Casey SF Cosart, Jarred MIA 2 AT&T Park JE 424 105.1 24.4 94.7 74 2 -1 0 423 25
06/02/15 Video View Crawford, Brandon SF Burnett, A.J. PIT 3 AT&T Park JE 383 97.0 31.3 103.0 96 8 -2 0 377 5
05/05/15 Video View Panik, Joe SF Cashner, Andrew SD 5 AT&T Park PL 382 105.8 25.0 62.2 66 1 -1 0 383 29
06/24/15 Video View Posey, Buster SF Kennedy, Ian SD 3 AT&T Park PL 403 102.3 31.0 104.7 108 3 -2 0 402 30
06/16/15 Video View Duffy, Matt SF Happ, J.A. SEA 2 AT&T Park PL/L 370 97.4 36.7 115.4 114 19 -2 0 352 11
05/09/15 Video View Ozuna, Marcell MIA Bumgarner, Madison SF 4 AT&T Park PL 424 104.8 26.6 98.9 91 4 -2 0 421 30
05/02/15 Video View Trout, Mike LAA Hudson, Tim SF 4 AT&T Park JE 403 106.9 21.7 99.7 62 -1 0 0 404 21
05/02/15 Video View Pujols, Albert LAA Hudson, Tim SF 7 AT&T Park ND 427 105.5 28.7 107.3 90 14 -2 0 414 30
05/07/15 Video View Ozuna, Marcell MIA Hudson, Tim SF 7 AT&T Park ND 425 110.1 24.4 107.8 74 4 -2 0 422 30
04/15/15 Video View Arenado, Nolan COL Lincecum, Tim SF 1 AT&T Park JE 403 99.1 31.0 99.4 100 11 -2 0 393 9
04/16/15 Video View Trumbo, Mark ARI Bumgarner, Madison SF 2 AT&T Park ND 419 110.5 25.1 111.3 80 -2 0 0 421 30
04/16/15 Video View Goldschmidt, Paul ARI Bumgarner, Madison SF 5 AT&T Park PL 395 107.2 23.9 109.7 72 -3 -1 0 398 30
04/16/15 Video View Pollock, A.J. ARI Casilla, Santiago SF 10 AT&T Park JE/L 349 101.1 25.5 125.1 60 -2 -1 0 351 25
04/18/15 Video View Peralta, David ARI Heston, Chris SF 4 AT&T Park JE/L 392 102.8 26.0 73.7 77 0 -1 0 393 29
04/19/15 Video View Goldschmidt, Paul ARI Hudson, Tim SF 1 AT&T Park PL 377 99.3 37.5 116.4 121 24 -4 0 355 17
04/22/15 Video View Guerrero, Alex LAD Bumgarner, Madison SF 7 AT&T Park ND 417 104.8 30.3 109.6 100 12 -4 0 408 30
04/23/15 Video View Guerrero, Alex LAD Vogelsong, Ryan SF 2 AT&T Park JE 417 108.6 20.8 95.3 63 -2 -1 0 419 23
04/23/15 Video View Gonzalez, Adrian LAD Vogelsong, Ryan SF 3 AT&T Park JE 412 102.5 25.1 87.8 80 1 0 0 411 18
05/29/15 Video View Freeman, Freddie ATL Casilla, Santiago SF 9 AT&T Park PL 433 105.8 25.5 89.9 91 1 -2 0 433 27
05/30/15 Video View Uribe, Juan ATL Machi, Jean SF 9 AT&T Park ND 409 106.8 29.4 116.4 93 5 -3 0 407 30
05/31/15 Video View Uribe, Juan ATL Bumgarner, Madison SF 7 AT&T Park PL 401 105.4 26.9 112.2 79 2 -1 0 400 30
05/31/15 Video View Freeman, Freddie ATL Casilla, Santiago SF 9 AT&T Park JE 421 101.6 27.7 92.5 87 10 -2 0 412 21
06/02/15 Video View Mercer, Jordy PIT Petit, Yusmeiro SF 5 AT&T Park PL 414 102.9 29.4 105.4 94 11 -2 0 404 30
06/03/15 Video View Mercer, Jordy PIT Hudson, Tim SF 5 AT&T Park PL 396 101.8 29.5 108.4 92 4 -1 0 394 30
06/15/15 Video View Seager, Kyle SEA Affeldt, Jeremy SF 8 AT&T Park PL 419 106.9 26.2 74.6 85 2 -2 0 419 30
06/16/15 Video View Miller, Brad SEA Lincecum, Tim SF 5 AT&T Park JE 392 102.6 24.7 102.7 72 0 0 0 393 19
06/25/15 Video View Kemp, Matt SD Affeldt, Jeremy SF 8 AT&T Park JE 411 103.0 24.0 90.0 78 0 0 0 411 17
06/26/15 Video View Arenado, Nolan COL Hudson, Tim SF 6 AT&T Park ND 416 106.1 27.7 109.6 87 6 -1 0 411 30
06/26/15 Video View Arenado, Nolan COL Broadway, Mike SF 9 AT&T Park JE 411 100.9 28.6 98.1 90 9 -2 0 404 19
06/28/15 Video View Arenado, Nolan COL Bumgarner, Madison SF 1 AT&T Park PL 379 101.4 29.1 121.5 77 7 -1 0 372 30
06/28/15 Video View Arenado, Nolan COL Romo, Sergio SF 9 AT&T Park PL 365 97.6 37.6 120.0 115 19 -2 0 347 17


About HitTracker | Contact Us
© 2006-2015 HitTrackerOnline